createdAt,value
2022-10-14T00:01:24.595Z,9.13
2022-10-14T00:03:55.583Z,7.07
2022-10-14T00:06:26.331Z,11.07
2022-10-14T00:08:55.280Z,9.90
2022-10-14T00:11:25.956Z,8.63
2022-10-14T00:13:56.742Z,8.13
2022-10-14T00:16:29.968Z,6.87
2022-10-14T00:18:59.637Z,7.00
2022-10-14T00:21:29.295Z,6.10
2022-10-14T00:23:58.248Z,8.77
2022-10-14T00:26:30.792Z,9.23
2022-10-14T00:29:00.435Z,7.93
2022-10-14T00:31:32.167Z,9.27
2022-10-14T00:34:02.082Z,8.43
2022-10-14T00:36:30.275Z,5.93
2022-10-14T00:38:58.488Z,7.37
2022-10-14T00:41:30.264Z,10.43
2022-10-14T00:44:02.670Z,7.03
2022-10-14T00:46:34.267Z,9.80
2022-10-14T00:49:09.719Z,8.60
2022-10-14T00:51:39.724Z,10.27
2022-10-14T00:54:08.993Z,11.40
2022-10-14T00:56:38.042Z,7.50
2022-10-14T00:59:12.736Z,10.00
2022-10-14T01:01:40.964Z,7.23
2022-10-14T01:04:10.376Z,5.33
2022-10-14T01:06:48.547Z,7.10
2022-10-14T01:09:28.294Z,5.30
2022-10-14T01:12:27.962Z,9.33
2022-10-14T01:15:06.309Z,7.17
2022-10-14T01:17:49.495Z,12.17
2022-10-14T01:20:50.451Z,11.07
2022-10-14T01:23:54.367Z,6.93
2022-10-14T01:26:48.059Z,10.00
2022-10-14T01:29:33.194Z,6.57
2022-10-14T01:32:07.668Z,10.40
2022-10-14T01:34:43.644Z,6.70
2022-10-14T01:37:18.776Z,8.63
2022-10-14T01:39:55.366Z,9.07
2022-10-14T01:42:28.103Z,6.20
2022-10-14T01:45:03.283Z,6.80
2022-10-14T01:47:36.511Z,5.73
2022-10-14T01:50:10.569Z,7.80
2022-10-14T01:52:44.879Z,9.07
2022-10-14T01:55:20.063Z,8.77
2022-10-14T01:57:51.800Z,6.90
2022-10-14T02:00:20.336Z,8.10
2022-10-14T02:02:49.786Z,6.27
2022-10-14T02:05:23.196Z,7.00
2022-10-14T02:07:58.377Z,10.27
2022-10-14T02:10:42.413Z,5.90
2022-10-14T02:13:29.349Z,7.97
2022-10-14T02:16:09.630Z,9.23
2022-10-14T02:18:49.356Z,6.33
2022-10-14T02:21:25.402Z,6.23
2022-10-14T02:24:00.216Z,6.07
2022-10-14T02:26:29.399Z,5.90
2022-10-14T02:28:59.185Z,7.47
2022-10-14T02:31:30.408Z,8.13
2022-10-14T02:34:06.361Z,7.07
2022-10-14T02:36:38.540Z,4.63
2022-10-14T02:39:08.852Z,9.47
2022-10-14T02:41:39.631Z,9.10
2022-10-14T02:44:09.397Z,6.37
2022-10-14T02:46:39.937Z,8.23
2022-10-14T02:49:11.708Z,7.53
2022-10-14T02:51:40.143Z,8.90
2022-10-14T02:54:12.378Z,9.30
2022-10-14T02:56:41.006Z,7.27
2022-10-14T02:59:09.060Z,7.17
2022-10-14T03:01:37.977Z,6.47
2022-10-14T03:04:08.195Z,6.53
2022-10-14T03:06:38.607Z,9.37
2022-10-14T03:09:06.756Z,8.67
2022-10-14T03:11:37.634Z,8.50
2022-10-14T03:14:08.778Z,10.20
2022-10-14T03:16:37.856Z,6.97
2022-10-14T03:19:06.849Z,6.47
2022-10-14T03:21:44.405Z,6.93
2022-10-14T03:24:18.997Z,9.37
2022-10-14T03:26:50.793Z,7.77
2022-10-14T03:29:25.093Z,6.20
2022-10-14T03:32:02.140Z,7.80
2022-10-14T03:34:47.665Z,9.27
2022-10-14T03:37:22.756Z,10.30
2022-10-14T03:39:53.008Z,10.43
2022-10-14T03:42:21.543Z,7.00
2022-10-14T03:44:51.156Z,7.23
2022-10-14T03:47:28.935Z,6.13
2022-10-14T03:49:57.087Z,9.17
2022-10-14T03:52:52.121Z,7.80
2022-10-14T03:55:28.541Z,7.97
2022-10-14T03:57:57.359Z,7.10
2022-10-14T04:00:25.463Z,7.77
2022-10-14T04:03:12.017Z,9.07
2022-10-14T04:05:41.699Z,11.73
2022-10-14T04:08:15.509Z,7.43
2022-10-14T04:10:53.789Z,8.77
2022-10-14T04:13:23.099Z,11.17
2022-10-14T04:15:51.182Z,7.90
2022-10-14T04:18:24.573Z,7.57
2022-10-14T04:20:56.131Z,8.70
2022-10-14T04:23:27.610Z,11.40
2022-10-14T04:26:04.253Z,8.60
2022-10-14T04:28:32.942Z,8.93
2022-10-14T04:31:09.077Z,8.53
2022-10-14T04:33:49.230Z,8.00
2022-10-14T04:36:23.499Z,9.60
2022-10-14T04:38:53.102Z,9.60
2022-10-14T04:41:21.200Z,8.47
2022-10-14T04:43:51.059Z,7.23
2022-10-14T04:46:33.843Z,8.23
2022-10-14T04:49:01.865Z,7.33
2022-10-14T04:51:34.942Z,10.63
2022-10-14T04:54:19.249Z,10.47
2022-10-14T04:56:54.011Z,12.03
2022-10-14T04:59:22.106Z,10.67
2022-10-14T05:02:10.380Z,10.03
2022-10-14T05:04:43.189Z,8.93
2022-10-14T05:07:12.157Z,13.20
2022-10-14T05:09:46.306Z,11.70
2022-10-14T05:12:29.042Z,11.57
2022-10-14T05:15:00.986Z,8.70
2022-10-14T05:17:39.208Z,12.23
2022-10-14T05:20:11.983Z,9.33
2022-10-14T05:22:41.671Z,12.33
2022-10-14T05:25:11.375Z,9.67
2022-10-14T05:27:39.538Z,9.73
2022-10-14T05:30:09.638Z,7.77
2022-10-14T05:32:43.314Z,8.40
2022-10-14T05:35:11.840Z,10.10
2022-10-14T05:37:41.742Z,7.20
2022-10-14T05:40:12.502Z,7.77
2022-10-14T05:42:40.721Z,7.10
2022-10-14T05:45:10.872Z,6.23
2022-10-14T05:47:46.383Z,9.10
2022-10-14T05:50:18.615Z,8.93
2022-10-14T05:52:48.337Z,7.13
2022-10-14T05:55:27.054Z,8.40
2022-10-14T05:57:59.391Z,10.80
2022-10-14T06:00:33.743Z,7.90
2022-10-14T06:03:07.233Z,9.90
2022-10-14T06:05:38.377Z,12.40
2022-10-14T06:08:06.986Z,9.27
2022-10-14T06:10:39.316Z,9.23
2022-10-14T06:13:07.398Z,11.77
2022-10-14T06:15:39.253Z,7.37
2022-10-14T06:18:12.358Z,11.97
2022-10-14T06:20:40.479Z,6.43
2022-10-14T06:23:08.560Z,7.83
2022-10-14T06:25:39.189Z,8.20
2022-10-14T06:28:07.320Z,8.87
2022-10-14T06:30:35.446Z,7.47
2022-10-14T06:33:03.537Z,7.23
2022-10-14T06:35:31.576Z,7.43
2022-10-14T06:37:59.778Z,7.50
2022-10-14T06:40:27.878Z,8.33
2022-10-14T06:42:59.596Z,5.90
2022-10-14T06:45:27.730Z,7.17
2022-10-14T06:47:55.821Z,7.13
2022-10-14T06:50:23.955Z,5.40
2022-10-14T06:52:52.013Z,8.17
2022-10-14T06:55:20.046Z,7.00
2022-10-14T06:57:48.110Z,8.67
2022-10-14T07:00:19.052Z,6.10
2022-10-14T07:02:47.169Z,6.00
2022-10-14T07:05:15.384Z,13.33
2022-10-14T07:07:43.510Z,8.23
2022-10-14T07:10:11.546Z,8.50
2022-10-14T07:12:39.617Z,7.60
2022-10-14T07:15:09.847Z,14.00
2022-10-14T07:17:39.597Z,7.63
2022-10-14T07:20:09.017Z,9.30
2022-10-14T07:22:38.777Z,9.13
2022-10-14T07:25:08.954Z,8.73
2022-10-14T07:27:37.203Z,8.43
2022-10-14T07:30:07.058Z,10.10
2022-10-14T07:32:37.773Z,8.87
2022-10-14T07:35:08.630Z,8.43
2022-10-14T07:37:36.688Z,8.67
2022-10-14T07:40:05.622Z,9.73
2022-10-14T07:42:33.781Z,11.10
2022-10-14T07:45:02.584Z,8.60
2022-10-14T07:47:31.072Z,14.97
2022-10-14T07:49:59.232Z,8.53
2022-10-14T07:52:28.876Z,7.67
2022-10-14T07:54:56.961Z,6.83
2022-10-14T07:57:25.538Z,8.93
2022-10-14T07:59:53.762Z,8.10
2022-10-14T08:02:22.100Z,7.50
2022-10-14T08:05:04.084Z,6.57
2022-10-14T08:07:42.805Z,9.60
2022-10-14T08:10:10.880Z,10.70
2022-10-14T08:12:38.991Z,5.33
2022-10-14T08:15:08.253Z,6.80
2022-10-14T08:17:36.286Z,8.50
2022-10-14T08:20:05.185Z,6.80
2022-10-14T08:22:33.205Z,8.53
2022-10-14T08:25:02.615Z,5.90
2022-10-14T08:27:30.694Z,10.10
2022-10-14T08:29:58.733Z,6.40
2022-10-14T08:32:26.785Z,8.50
2022-10-14T08:34:55.912Z,8.83
2022-10-14T08:37:24.208Z,7.17
2022-10-14T08:39:52.261Z,7.83
2022-10-14T08:42:39.290Z,6.37
2022-10-14T08:45:15.311Z,5.63
2022-10-14T08:47:47.338Z,8.67
2022-10-14T08:50:29.159Z,6.07
2022-10-14T08:53:03.537Z,7.50
2022-10-14T08:55:37.601Z,6.40
2022-10-14T08:58:15.802Z,6.23
2022-10-14T09:00:47.687Z,4.47
2022-10-14T09:03:22.223Z,3.87
2022-10-14T09:05:58.526Z,6.27
2022-10-14T09:08:34.336Z,5.87
2022-10-14T09:11:02.660Z,5.70
2022-10-14T09:13:37.895Z,5.97
2022-10-14T09:16:10.764Z,6.07
2022-10-14T09:18:43.407Z,8.20
2022-10-14T09:21:40.889Z,8.13
2022-10-14T09:24:21.368Z,6.67
2022-10-14T09:26:53.406Z,5.03
2022-10-14T09:29:28.893Z,6.00
2022-10-14T09:31:59.858Z,7.97
2022-10-14T09:34:35.540Z,6.37
2022-10-14T09:37:23.691Z,9.60
2022-10-14T09:39:55.239Z,6.90
2022-10-14T09:42:34.705Z,6.90
2022-10-14T09:45:13.062Z,6.23
2022-10-14T09:47:51.130Z,6.33
2022-10-14T09:50:27.101Z,6.33
2022-10-14T09:53:05.365Z,7.83
2022-10-14T09:55:36.546Z,9.00
2022-10-14T09:58:16.666Z,11.27
2022-10-14T10:00:47.845Z,8.13
2022-10-14T10:03:27.907Z,5.80
2022-10-14T10:06:07.771Z,6.27
2022-10-14T10:08:38.866Z,7.47
2022-10-14T10:11:10.420Z,6.73
2022-10-14T10:13:44.453Z,7.30
2022-10-14T10:16:24.294Z,6.53
2022-10-14T10:18:55.153Z,11.33
2022-10-14T10:21:26.489Z,8.47
2022-10-14T10:23:58.475Z,9.13
2022-10-14T10:26:31.917Z,7.10
2022-10-14T10:29:02.950Z,9.83
2022-10-14T10:31:51.667Z,8.70
2022-10-14T10:35:00.989Z,8.57
2022-10-14T10:37:33.285Z,5.93
2022-10-14T10:40:31.996Z,7.67
2022-10-14T10:43:36.386Z,5.70
2022-10-14T10:46:34.479Z,8.17
2022-10-14T10:49:14.595Z,8.27
2022-10-14T10:51:53.290Z,9.43
2022-10-14T10:54:35.721Z,6.23
2022-10-14T10:57:13.778Z,11.07
2022-10-14T10:59:57.669Z,6.77
2022-10-14T11:02:54.911Z,6.10
2022-10-14T11:05:43.658Z,5.43
2022-10-14T11:08:56.472Z,6.37
2022-10-14T11:11:46.743Z,6.17
2022-10-14T11:14:36.755Z,7.23
2022-10-14T11:17:14.963Z,10.27
2022-10-14T11:19:55.127Z,7.77
2022-10-14T11:22:44.211Z,7.90
2022-10-14T11:25:26.072Z,9.43
2022-10-14T11:28:03.549Z,5.27
2022-10-14T11:30:46.181Z,6.10
2022-10-14T11:33:39.795Z,6.87
2022-10-14T11:36:31.406Z,9.43
2022-10-14T11:39:20.059Z,5.00
2022-10-14T11:42:05.295Z,4.40
2022-10-14T11:44:37.901Z,5.50
2022-10-14T11:47:13.832Z,4.80
2022-10-14T11:49:48.641Z,4.60
2022-10-14T11:52:23.608Z,4.00
2022-10-14T11:54:59.836Z,4.87
2022-10-14T11:57:33.585Z,5.17
2022-10-14T12:00:23.336Z,5.83
2022-10-14T12:02:59.492Z,5.00
2022-10-14T12:05:40.034Z,7.17
2022-10-14T12:08:22.139Z,5.37
2022-10-14T12:10:59.145Z,4.20
2022-10-14T12:13:35.569Z,4.20
2022-10-14T12:16:05.448Z,4.20
2022-10-14T12:21:20.308Z,2.67
2022-10-14T12:23:53.267Z,2.93
2022-10-14T12:26:48.210Z,3.07
2022-10-14T12:29:20.549Z,4.60
2022-10-14T12:32:09.637Z,4.03
2022-10-14T12:34:40.478Z,3.50
2022-10-14T12:37:52.516Z,3.00
2022-10-14T12:40:31.552Z,2.57
2022-10-14T12:43:31.193Z,2.27
2022-10-14T12:46:14.411Z,2.90
2022-10-14T12:48:52.384Z,3.97
2022-10-14T12:51:23.832Z,1.77
2022-10-14T12:54:04.864Z,1.90
2022-10-14T12:56:37.357Z,2.60
2022-10-14T12:59:09.341Z,1.20
2022-10-14T13:01:43.633Z,1.93
2022-10-14T13:04:20.245Z,1.33
2022-10-14T13:07:41.252Z,1.60
2022-10-14T13:10:48.478Z,0.90
2022-10-14T13:14:01.362Z,1.43
2022-10-14T13:17:00.221Z,3.43
2022-10-14T13:19:46.502Z,0.90
2022-10-14T13:22:39.899Z,2.30
2022-10-14T13:25:20.507Z,1.23
2022-10-14T13:28:13.834Z,2.23
2022-10-14T13:30:58.638Z,1.40
2022-10-14T13:33:37.893Z,2.90
2022-10-14T13:36:18.117Z,2.57
2022-10-14T13:38:54.767Z,0.80
2022-10-14T13:41:30.682Z,1.23
2022-10-14T13:44:01.272Z,1.13
2022-10-14T13:46:35.036Z,1.60
2022-10-14T13:51:53.467Z,3.70
2022-10-14T13:54:24.065Z,2.13
2022-10-14T13:57:43.036Z,1.90
2022-10-14T14:00:38.820Z,1.60
2022-10-14T14:02:49.025Z,1.13
2022-10-14T14:05:24.761Z,1.57
2022-10-14T14:11:11.099Z,2.43
2022-10-14T14:13:33.570Z,1.80
2022-10-14T14:16:01.883Z,1.60
2022-10-14T14:18:49.518Z,1.60
2022-10-14T14:21:28.623Z,1.40
2022-10-14T14:23:58.744Z,1.67
2022-10-14T14:26:33.691Z,2.43
2022-10-14T14:29:06.229Z,2.17
2022-10-14T14:32:05.067Z,3.03
2022-10-14T14:34:25.079Z,6.00
2022-10-14T14:37:01.316Z,2.20
2022-10-14T14:39:34.951Z,2.10
2022-10-14T14:42:03.523Z,1.60
2022-10-14T14:44:34.743Z,2.87
2022-10-14T14:47:06.053Z,1.93
2022-10-14T14:49:39.239Z,3.87
2022-10-14T14:52:12.638Z,2.07
2022-10-14T14:54:46.510Z,2.77
2022-10-14T14:57:19.688Z,4.03
2022-10-14T14:59:58.249Z,3.93
2022-10-14T15:02:26.506Z,3.70
2022-10-14T15:05:03.442Z,3.60
2022-10-14T15:07:33.343Z,2.80
2022-10-14T15:10:05.245Z,1.47
2022-10-14T15:12:39.094Z,1.87
2022-10-14T15:15:26.714Z,1.97
2022-10-14T15:18:14.933Z,1.23
2022-10-14T15:20:44.231Z,1.17
2022-10-14T15:23:43.582Z,1.17
2022-10-14T15:26:31.330Z,3.63
2022-10-14T15:32:15.005Z,4.50
2022-10-14T15:34:43.100Z,1.17
2022-10-14T15:37:14.704Z,2.30
2022-10-14T15:39:44.399Z,3.00
2022-10-14T15:42:13.312Z,2.73
2022-10-14T15:44:41.294Z,2.40
2022-10-14T15:47:22.445Z,1.67
2022-10-14T15:49:50.739Z,2.43
2022-10-14T15:52:21.590Z,3.57
2022-10-14T15:54:53.774Z,1.10
2022-10-14T15:57:22.295Z,3.17
2022-10-14T15:59:52.643Z,1.90
2022-10-14T16:02:33.240Z,2.53
2022-10-14T16:07:50.448Z,3.20
2022-10-14T16:10:22.878Z,1.53
2022-10-14T16:12:51.189Z,1.43
2022-10-14T16:15:35.113Z,1.23
2022-10-14T16:18:03.165Z,1.23
2022-10-14T16:20:31.693Z,1.30
2022-10-14T16:23:01.386Z,1.67
2022-10-14T16:25:36.073Z,1.77
2022-10-14T16:28:29.897Z,6.50
2022-10-14T16:30:59.858Z,5.37
2022-10-14T16:33:28.158Z,2.60
2022-10-14T16:35:58.108Z,1.53
2022-10-14T16:38:26.246Z,6.03
2022-10-14T16:41:00.320Z,1.83
2022-10-14T16:43:29.851Z,1.27
2022-10-14T16:46:00.557Z,1.77
2022-10-14T16:48:29.669Z,1.63
2022-10-14T16:50:58.025Z,0.93
2022-10-14T16:53:43.569Z,1.33
2022-10-14T16:56:34.206Z,1.83
2022-10-14T16:59:03.634Z,1.73
2022-10-14T17:01:32.315Z,2.07
2022-10-14T17:04:00.484Z,1.00
2022-10-14T17:06:29.006Z,2.27
2022-10-14T17:08:57.207Z,1.63
2022-10-14T17:11:28.076Z,1.63
2022-10-14T17:13:57.942Z,3.10
2022-10-14T17:16:26.974Z,2.00
2022-10-14T17:18:55.167Z,1.20
2022-10-14T17:21:24.233Z,2.60
2022-10-14T17:23:52.224Z,3.07
2022-10-14T17:26:20.932Z,4.00
2022-10-14T17:28:50.866Z,1.30
2022-10-14T17:31:21.538Z,0.83
2022-10-14T17:33:50.235Z,1.50
2022-10-14T17:36:20.575Z,3.33
2022-10-14T17:38:51.860Z,3.17
2022-10-14T17:41:20.547Z,0.87
2022-10-14T17:43:51.808Z,2.20
2022-10-14T17:46:23.365Z,0.70
2022-10-14T17:48:54.362Z,1.23
2022-10-14T17:51:24.380Z,0.80
2022-10-14T17:53:55.108Z,1.50
2022-10-14T17:56:23.505Z,1.83
2022-10-14T17:58:57.920Z,1.47
2022-10-14T18:01:37.317Z,1.20
2022-10-14T18:04:12.072Z,1.20
2022-10-14T18:06:40.373Z,1.00
2022-10-14T18:09:10.532Z,1.20
2022-10-14T18:12:07.684Z,1.33
2022-10-14T18:14:33.440Z,1.20
2022-10-14T18:17:01.782Z,0.83
2022-10-14T18:19:30.157Z,1.47
2022-10-14T18:21:58.287Z,4.07
2022-10-14T18:24:27.070Z,7.37
2022-10-14T18:26:55.101Z,4.30
2022-10-14T18:29:24.532Z,2.30
2022-10-14T18:31:53.894Z,5.97
2022-10-14T18:34:24.882Z,3.90
2022-10-14T18:36:53.330Z,3.70
2022-10-14T18:39:21.533Z,2.30
2022-10-14T18:41:49.790Z,1.33
2022-10-14T18:44:19.406Z,3.07
2022-10-14T18:46:48.484Z,1.43
2022-10-14T18:49:18.278Z,1.27
2022-10-14T18:51:46.619Z,1.90
2022-10-14T18:54:18.093Z,1.57
2022-10-14T18:56:47.182Z,1.53
2022-10-14T18:59:18.177Z,1.20
2022-10-14T19:01:47.608Z,0.90
2022-10-14T19:04:18.689Z,1.10
2022-10-14T19:06:48.602Z,3.10
2022-10-14T19:09:17.428Z,1.20
2022-10-14T19:11:47.696Z,1.63
2022-10-14T19:14:15.735Z,3.43
2022-10-14T19:16:44.456Z,1.03
2022-10-14T19:19:16.727Z,3.63
2022-10-14T19:21:49.536Z,3.30
2022-10-14T19:24:18.070Z,3.23
2022-10-14T19:26:49.852Z,3.27
2022-10-14T19:29:18.246Z,2.03
2022-10-14T19:31:46.367Z,2.83
2022-10-14T19:34:16.691Z,2.43
2022-10-14T19:36:47.140Z,2.07
2022-10-14T19:39:18.788Z,3.33
2022-10-14T19:41:47.478Z,4.90
2022-10-14T19:44:17.267Z,3.13
2022-10-14T19:46:46.274Z,1.50
2022-10-14T19:49:16.161Z,2.30
2022-10-14T19:51:45.142Z,1.83
2022-10-14T19:54:15.168Z,3.00
2022-10-14T19:56:43.461Z,3.97
2022-10-14T19:59:17.005Z,3.17
2022-10-14T20:01:45.253Z,2.77
2022-10-14T20:04:13.467Z,2.47
2022-10-14T20:06:42.875Z,2.93
2022-10-14T20:09:14.910Z,2.57
2022-10-14T20:11:44.050Z,3.07
2022-10-14T20:14:12.142Z,1.60
2022-10-14T20:16:40.269Z,1.47
2022-10-14T20:19:08.392Z,1.47
2022-10-14T20:21:36.445Z,1.27
2022-10-14T20:24:05.271Z,4.93
2022-10-14T20:26:36.051Z,3.33
2022-10-14T20:29:04.228Z,2.47
2022-10-14T20:31:32.298Z,1.77
2022-10-14T20:34:00.457Z,1.20
2022-10-14T20:36:28.654Z,2.13
2022-10-14T20:38:56.673Z,2.70
2022-10-14T20:41:27.286Z,1.20
2022-10-14T20:43:58.093Z,1.20
2022-10-14T20:46:26.201Z,2.20
2022-10-14T20:48:55.956Z,1.63
2022-10-14T20:51:24.541Z,1.93
2022-10-14T20:54:01.800Z,1.63
2022-10-14T20:56:34.370Z,1.17
2022-10-14T20:59:07.403Z,3.83
2022-10-14T21:01:37.553Z,0.70
2022-10-14T21:04:07.883Z,1.73
2022-10-14T21:06:38.561Z,3.17
2022-10-14T21:09:07.343Z,1.70
2022-10-14T21:11:35.485Z,1.00
2022-10-14T21:14:05.100Z,0.87
2022-10-14T21:16:35.330Z,0.80
2022-10-14T21:19:07.463Z,3.10
2022-10-14T21:21:39.126Z,2.73
2022-10-14T21:24:08.745Z,0.70
2022-10-14T21:26:36.788Z,2.33
2022-10-14T21:29:06.643Z,3.97
2022-10-14T21:31:34.995Z,1.47
2022-10-14T21:34:06.605Z,0.97
2022-10-14T21:36:35.548Z,1.13
2022-10-14T21:39:07.573Z,3.13
2022-10-14T21:41:36.005Z,1.30
2022-10-14T21:44:06.913Z,1.10
2022-10-14T21:46:36.442Z,1.40
2022-10-14T21:49:04.955Z,0.93
2022-10-14T21:51:33.877Z,1.20
2022-10-14T21:54:01.927Z,1.77
2022-10-14T21:56:30.359Z,1.00
2022-10-14T21:58:59.338Z,0.90
2022-10-14T22:01:30.868Z,3.30
2022-10-14T22:04:00.893Z,0.90
2022-10-14T22:06:29.454Z,1.43
2022-10-14T22:09:00.501Z,2.60
2022-10-14T22:11:31.216Z,1.07
2022-10-14T22:14:02.007Z,3.63
2022-10-14T22:16:37.573Z,1.10
2022-10-14T22:19:07.834Z,1.27
2022-10-14T22:21:39.329Z,0.87
2022-10-14T22:24:09.575Z,1.20
2022-10-14T22:26:40.533Z,1.90
2022-10-14T22:29:13.635Z,1.63
2022-10-14T22:31:43.692Z,1.23
2022-10-14T22:34:15.629Z,1.37
2022-10-14T22:36:44.463Z,2.67
2022-10-14T22:39:15.138Z,2.40
2022-10-14T22:41:43.403Z,1.40
2022-10-14T22:44:12.389Z,3.93
2022-10-14T22:46:42.579Z,3.13
2022-10-14T22:49:10.906Z,3.40
2022-10-14T22:51:41.226Z,2.07
2022-10-14T22:54:10.150Z,1.40
2022-10-14T22:56:39.152Z,2.03
2022-10-14T22:59:09.539Z,0.70
2022-10-14T23:01:38.445Z,2.37
2022-10-14T23:04:08.296Z,1.10
2022-10-14T23:06:36.385Z,4.47
2022-10-14T23:09:05.840Z,1.60
2022-10-14T23:11:33.940Z,1.37
2022-10-14T23:14:06.161Z,1.60
2022-10-14T23:16:36.233Z,2.03
2022-10-14T23:19:04.751Z,1.10
2022-10-14T23:21:36.188Z,1.10
2022-10-14T23:24:08.010Z,1.13
2022-10-14T23:26:37.018Z,2.40
2022-10-14T23:29:08.147Z,0.80
2022-10-14T23:31:38.112Z,2.23
2022-10-14T23:34:12.579Z,1.03
2022-10-14T23:36:42.510Z,1.23
2022-10-14T23:39:10.884Z,1.40
2022-10-14T23:41:39.350Z,1.33
2022-10-14T23:44:07.397Z,2.10
2022-10-14T23:46:35.434Z,2.07
2022-10-14T23:49:21.162Z,1.00
2022-10-14T23:51:53.034Z,1.50
2022-10-14T23:54:21.057Z,0.90
2022-10-14T23:56:49.147Z,1.07
2022-10-14T23:59:17.364Z,1.67
